sensor_id;sensor_type;location;lat;lon;timestamp;temperature;humidity
19805;DHT22;10062;51.052;13.756;2022-11-04T00:02:15;11.90;1.00
19805;DHT22;10062;51.052;13.756;2022-11-04T00:04:47;11.80;1.00
19805;DHT22;10062;51.052;13.756;2022-11-04T00:07:18;11.70;1.00
19805;DHT22;10062;51.052;13.756;2022-11-04T00:10:08;11.90;1.00
19805;DHT22;10062;51.052;13.756;2022-11-04T00:12:40;11.70;1.00
19805;DHT22;10062;51.052;13.756;2022-11-04T00:15:11;11.80;1.00
19805;DHT22;10062;51.052;13.756;2022-11-04T00:18:02;11.70;1.00
19805;DHT22;10062;51.052;13.756;2022-11-04T00:20:33;11.60;1.00
19805;DHT22;10062;51.052;13.756;2022-11-04T00:23:22;11.70;1.00
19805;DHT22;10062;51.052;13.756;2022-11-04T00:26:11;11.60;1.00
19805;DHT22;10062;51.052;13.756;2022-11-04T00:29:01;11.60;1.00
19805;DHT22;10062;51.052;13.756;2022-11-04T00:31:32;11.50;1.00
19805;DHT22;10062;51.052;13.756;2022-11-04T00:34:23;11.60;1.00
19805;DHT22;10062;51.052;13.756;2022-11-04T00:36:55;11.60;1.00
19805;DHT22;10062;51.052;13.756;2022-11-04T00:39:27;11.60;1.00
19805;DHT22;10062;51.052;13.756;2022-11-04T00:41:58;11.50;1.00
19805;DHT22;10062;51.052;13.756;2022-11-04T00:44:30;11.50;1.00
19805;DHT22;10062;51.052;13.756;2022-11-04T00:47:02;11.60;1.00
19805;DHT22;10062;51.052;13.756;2022-11-04T00:49:35;11.60;1.00
19805;DHT22;10062;51.052;13.756;2022-11-04T00:52:07;11.60;1.00
19805;DHT22;10062;51.052;13.756;2022-11-04T00:54:39;11.40;1.00
19805;DHT22;10062;51.052;13.756;2022-11-04T00:57:11;11.40;1.00
19805;DHT22;10062;51.052;13.756;2022-11-04T00:59:43;11.50;1.00
19805;DHT22;10062;51.052;13.756;2022-11-04T01:02:16;11.50;1.00
19805;DHT22;10062;51.052;13.756;2022-11-04T01:04:49;11.60;1.00
19805;DHT22;10062;51.052;13.756;2022-11-04T01:07:20;11.50;1.00
19805;DHT22;10062;51.052;13.756;2022-11-04T01:09:52;11.60;1.00
19805;DHT22;10062;51.052;13.756;2022-11-04T01:12:24;11.50;1.00
19805;DHT22;10062;51.052;13.756;2022-11-04T01:14:56;11.50;1.00
19805;DHT22;10062;51.052;13.756;2022-11-04T01:17:28;11.50;1.00
19805;DHT22;10062;51.052;13.756;2022-11-04T01:20:01;11.60;1.00
19805;DHT22;10062;51.052;13.756;2022-11-04T01:22:34;11.60;1.00
19805;DHT22;10062;51.052;13.756;2022-11-04T01:25:07;11.60;1.00
19805;DHT22;10062;51.052;13.756;2022-11-04T01:27:39;11.70;1.00
19805;DHT22;10062;51.052;13.756;2022-11-04T01:30:11;11.70;1.00
19805;DHT22;10062;51.052;13.756;2022-11-04T01:32:43;11.60;1.00
19805;DHT22;10062;51.052;13.756;2022-11-04T01:35:16;11.70;1.00
19805;DHT22;10062;51.052;13.756;2022-11-04T01:37:48;11.70;1.00
19805;DHT22;10062;51.052;13.756;2022-11-04T01:40:20;11.70;1.00
19805;DHT22;10062;51.052;13.756;2022-11-04T01:42:51;11.70;1.00
19805;DHT22;10062;51.052;13.756;2022-11-04T01:45:23;11.70;1.00
19805;DHT22;10062;51.052;13.756;2022-11-04T01:47:59;11.70;1.00
19805;DHT22;10062;51.052;13.756;2022-11-04T01:50:33;11.80;1.00
19805;DHT22;10062;51.052;13.756;2022-11-04T01:53:11;11.70;1.00
19805;DHT22;10062;51.052;13.756;2022-11-04T01:55:50;11.80;1.00
19805;DHT22;10062;51.052;13.756;2022-11-04T01:58:25;11.80;1.00
19805;DHT22;10062;51.052;13.756;2022-11-04T02:00:59;11.80;1.00
19805;DHT22;10062;51.052;13.756;2022-11-04T02:03:35;11.90;1.00
19805;DHT22;10062;51.052;13.756;2022-11-04T02:06:10;11.80;1.00
19805;DHT22;10062;51.052;13.756;2022-11-04T02:08:42;11.80;1.00
19805;DHT22;10062;51.052;13.756;2022-11-04T02:11:14;11.90;1.00
19805;DHT22;10062;51.052;13.756;2022-11-04T02:14:00;11.90;1.00
19805;DHT22;10062;51.052;13.756;2022-11-04T02:16:37;12.00;1.00
19805;DHT22;10062;51.052;13.756;2022-11-04T02:19:25;12.10;1.00
19805;DHT22;10062;51.052;13.756;2022-11-04T02:22:20;12.10;1.00
19805;DHT22;10062;51.052;13.756;2022-11-04T02:31:03;12.00;1.00
19805;DHT22;10062;51.052;13.756;2022-11-04T02:33:43;12.10;1.00
19805;DHT22;10062;51.052;13.756;2022-11-04T02:36:22;12.00;1.00
19805;DHT22;10062;51.052;13.756;2022-11-04T02:39:01;11.80;1.00
19805;DHT22;10062;51.052;13.756;2022-11-04T02:41:40;11.90;1.00
19805;DHT22;10062;51.052;13.756;2022-11-04T02:44:15;12.00;1.00
19805;DHT22;10062;51.052;13.756;2022-11-04T02:46:52;12.00;1.00
19805;DHT22;10062;51.052;13.756;2022-11-04T02:49:31;11.90;1.00
19805;DHT22;10062;51.052;13.756;2022-11-04T02:52:06;11.90;1.00
19805;DHT22;10062;51.052;13.756;2022-11-04T02:54:42;12.00;1.00
19805;DHT22;10062;51.052;13.756;2022-11-04T02:57:20;12.00;1.00
19805;DHT22;10062;51.052;13.756;2022-11-04T02:59:57;12.10;1.00
19805;DHT22;10062;51.052;13.756;2022-11-04T03:02:34;12.20;1.00
19805;DHT22;10062;51.052;13.756;2022-11-04T03:05:11;12.00;1.00
19805;DHT22;10062;51.052;13.756;2022-11-04T03:07:46;11.90;1.00
19805;DHT22;10062;51.052;13.756;2022-11-04T03:10:23;12.00;1.00
19805;DHT22;10062;51.052;13.756;2022-11-04T03:13:01;12.10;1.00
19805;DHT22;10062;51.052;13.756;2022-11-04T03:15:36;12.00;1.00
19805;DHT22;10062;51.052;13.756;2022-11-04T03:18:17;11.90;1.00
19805;DHT22;10062;51.052;13.756;2022-11-04T03:20:51;11.90;1.00
19805;DHT22;10062;51.052;13.756;2022-11-04T03:23:23;11.80;1.00
19805;DHT22;10062;51.052;13.756;2022-11-04T03:26:01;12.00;1.00
19805;DHT22;10062;51.052;13.756;2022-11-04T03:28:42;11.90;1.00
19805;DHT22;10062;51.052;13.756;2022-11-04T03:31:19;11.90;1.00
19805;DHT22;10062;51.052;13.756;2022-11-04T03:33:55;11.90;1.00
19805;DHT22;10062;51.052;13.756;2022-11-04T03:36:27;12.00;1.00
19805;DHT22;10062;51.052;13.756;2022-11-04T03:38:59;11.90;1.00
19805;DHT22;10062;51.052;13.756;2022-11-04T03:41:34;11.90;1.00
19805;DHT22;10062;51.052;13.756;2022-11-04T03:44:07;11.80;1.00
19805;DHT22;10062;51.052;13.756;2022-11-04T03:46:39;11.80;1.00
19805;DHT22;10062;51.052;13.756;2022-11-04T03:49:13;11.70;1.00
19805;DHT22;10062;51.052;13.756;2022-11-04T03:51:45;11.70;4.00
19805;DHT22;10062;51.052;13.756;2022-11-04T03:54:18;11.60;17.50
19805;DHT22;10062;51.052;13.756;2022-11-04T03:57:20;11.50;26.00
19805;DHT22;10062;51.052;13.756;2022-11-04T04:00:06;11.50;34.40
19805;DHT22;10062;51.052;13.756;2022-11-04T04:02:51;11.50;36.20
19805;DHT22;10062;51.052;13.756;2022-11-04T04:05:29;11.50;26.80
19805;DHT22;10062;51.052;13.756;2022-11-04T04:08:12;11.50;22.60
19805;DHT22;10062;51.052;13.756;2022-11-04T04:10:51;11.50;23.40
19805;DHT22;10062;51.052;13.756;2022-11-04T04:13:37;11.60;20.00
19805;DHT22;10062;51.052;13.756;2022-11-04T04:16:16;11.50;19.40
19805;DHT22;10062;51.052;13.756;2022-11-04T04:18:53;11.50;20.60
19805;DHT22;10062;51.052;13.756;2022-11-04T04:21:31;11.50;18.30
19805;DHT22;10062;51.052;13.756;2022-11-04T04:24:05;11.60;8.60
19805;DHT22;10062;51.052;13.756;2022-11-04T04:26:58;11.50;18.00
19805;DHT22;10062;51.052;13.756;2022-11-04T04:29:53;11.60;11.80
19805;DHT22;10062;51.052;13.756;2022-11-04T04:32:27;11.50;10.70
19805;DHT22;10062;51.052;13.756;2022-11-04T04:35:00;11.60;13.30
19805;DHT22;10062;51.052;13.756;2022-11-04T04:37:51;11.50;13.80
19805;DHT22;10062;51.052;13.756;2022-11-04T04:40:25;11.60;15.90
19805;DHT22;10062;51.052;13.756;2022-11-04T04:43:16;11.50;21.00
19805;DHT22;10062;51.052;13.756;2022-11-04T04:46:06;11.50;35.40
19805;DHT22;10062;51.052;13.756;2022-11-04T04:48:38;11.50;19.70
19805;DHT22;10062;51.052;13.756;2022-11-04T04:51:10;11.50;26.90
19805;DHT22;10062;51.052;13.756;2022-11-04T04:53:43;11.50;34.30
19805;DHT22;10062;51.052;13.756;2022-11-04T04:56:14;11.50;37.20
19805;DHT22;10062;51.052;13.756;2022-11-04T04:58:46;11.50;45.20
19805;DHT22;10062;51.052;13.756;2022-11-04T05:01:18;11.60;35.90
19805;DHT22;10062;51.052;13.756;2022-11-04T05:03:50;11.50;30.90
19805;DHT22;10062;51.052;13.756;2022-11-04T05:06:22;11.50;30.70
19805;DHT22;10062;51.052;13.756;2022-11-04T05:08:55;11.50;32.20
19805;DHT22;10062;51.052;13.756;2022-11-04T05:11:26;11.60;20.00
19805;DHT22;10062;51.052;13.756;2022-11-04T05:13:58;11.60;24.80
19805;DHT22;10062;51.052;13.756;2022-11-04T05:16:30;11.70;16.80
19805;DHT22;10062;51.052;13.756;2022-11-04T05:19:02;11.90;12.80
19805;DHT22;10062;51.052;13.756;2022-11-04T05:21:34;11.80;16.50
19805;DHT22;10062;51.052;13.756;2022-11-04T05:24:07;11.90;1.70
19805;DHT22;10062;51.052;13.756;2022-11-04T05:26:39;11.90;1.00
19805;DHT22;10062;51.052;13.756;2022-11-04T05:29:11;11.90;1.00
19805;DHT22;10062;51.052;13.756;2022-11-04T05:31:43;11.80;14.30
19805;DHT22;10062;51.052;13.756;2022-11-04T05:34:14;11.80;24.10
19805;DHT22;10062;51.052;13.756;2022-11-04T05:36:46;11.70;33.00
19805;DHT22;10062;51.052;13.756;2022-11-04T05:39:19;11.80;32.10
19805;DHT22;10062;51.052;13.756;2022-11-04T05:41:51;11.70;35.40
19805;DHT22;10062;51.052;13.756;2022-11-04T05:44:23;11.70;44.30
19805;DHT22;10062;51.052;13.756;2022-11-04T05:46:55;11.60;63.70
19805;DHT22;10062;51.052;13.756;2022-11-04T05:49:27;11.60;74.80
19805;DHT22;10062;51.052;13.756;2022-11-04T05:51:58;11.60;70.30
19805;DHT22;10062;51.052;13.756;2022-11-04T05:54:31;11.60;71.70
19805;DHT22;10062;51.052;13.756;2022-11-04T05:57:03;11.70;75.40
19805;DHT22;10062;51.052;13.756;2022-11-04T05:59:35;11.70;61.70
19805;DHT22;10062;51.052;13.756;2022-11-04T06:02:07;11.60;68.30
19805;DHT22;10062;51.052;13.756;2022-11-04T06:04:39;11.70;67.40
19805;DHT22;10062;51.052;13.756;2022-11-04T06:07:11;11.80;71.30
19805;DHT22;10062;51.052;13.756;2022-11-04T06:09:44;12.20;77.90
19805;DHT22;10062;51.052;13.756;2022-11-04T06:12:16;11.80;70.20
19805;DHT22;10062;51.052;13.756;2022-11-04T06:14:48;11.80;75.00
19805;DHT22;10062;51.052;13.756;2022-11-04T06:17:21;11.80;84.20
19805;DHT22;10062;51.052;13.756;2022-11-04T06:19:53;11.60;72.00
19805;DHT22;10062;51.052;13.756;2022-11-04T06:22:24;11.60;94.00
19805;DHT22;10062;51.052;13.756;2022-11-04T06:24:57;11.60;99.90
19805;DHT22;10062;51.052;13.756;2022-11-04T06:27:29;11.60;92.30
19805;DHT22;10062;51.052;13.756;2022-11-04T06:30:01;11.60;89.90
19805;DHT22;10062;51.052;13.756;2022-11-04T06:32:33;11.60;90.50
19805;DHT22;10062;51.052;13.756;2022-11-04T06:35:05;11.70;94.10
19805;DHT22;10062;51.052;13.756;2022-11-04T06:37:38;11.80;90.40
19805;DHT22;10062;51.052;13.756;2022-11-04T06:40:11;11.70;90.60
19805;DHT22;10062;51.052;13.756;2022-11-04T06:42:43;11.60;92.90
19805;DHT22;10062;51.052;13.756;2022-11-04T06:45:15;11.60;99.90
19805;DHT22;10062;51.052;13.756;2022-11-04T06:47:47;11.60;99.90
19805;DHT22;10062;51.052;13.756;2022-11-04T06:50:19;11.60;99.90
19805;DHT22;10062;51.052;13.756;2022-11-04T06:52:50;11.60;99.90
19805;DHT22;10062;51.052;13.756;2022-11-04T06:55:24;11.60;99.90
19805;DHT22;10062;51.052;13.756;2022-11-04T06:57:56;11.60;99.90
19805;DHT22;10062;51.052;13.756;2022-11-04T07:00:27;11.90;99.90
19805;DHT22;10062;51.052;13.756;2022-11-04T07:02:59;11.90;96.40
19805;DHT22;10062;51.052;13.756;2022-11-04T07:05:31;11.90;96.60
19805;DHT22;10062;51.052;13.756;2022-11-04T07:08:04;12.00;96.60
19805;DHT22;10062;51.052;13.756;2022-11-04T07:10:37;12.00;90.10
19805;DHT22;10062;51.052;13.756;2022-11-04T07:13:09;12.10;95.50
19805;DHT22;10062;51.052;13.756;2022-11-04T07:15:41;12.10;96.70
19805;DHT22;10062;51.052;13.756;2022-11-04T07:18:13;12.20;99.20
19805;DHT22;10062;51.052;13.756;2022-11-04T07:20:44;12.30;99.40
19805;DHT22;10062;51.052;13.756;2022-11-04T07:23:16;12.50;90.40
19805;DHT22;10062;51.052;13.756;2022-11-04T07:25:50;12.70;47.30
19805;DHT22;10062;51.052;13.756;2022-11-04T07:28:23;12.90;11.70
19805;DHT22;10062;51.052;13.756;2022-11-04T07:30:56;12.80;14.70
19805;DHT22;10062;51.052;13.756;2022-11-04T07:33:28;12.90;14.10
19805;DHT22;10062;51.052;13.756;2022-11-04T07:36:03;13.00;13.60
19805;DHT22;10062;51.052;13.756;2022-11-04T07:38:35;13.10;12.90
19805;DHT22;10062;51.052;13.756;2022-11-04T07:41:08;13.30;1.00
19805;DHT22;10062;51.052;13.756;2022-11-04T07:43:40;13.60;1.00
19805;DHT22;10062;51.052;13.756;2022-11-04T07:46:12;13.50;1.00
19805;DHT22;10062;51.052;13.756;2022-11-04T07:48:44;13.60;1.00
19805;DHT22;10062;51.052;13.756;2022-11-04T07:51:19;13.60;1.00
19805;DHT22;10062;51.052;13.756;2022-11-04T07:53:51;13.60;1.00
19805;DHT22;10062;51.052;13.756;2022-11-04T07:56:24;13.60;1.00
19805;DHT22;10062;51.052;13.756;2022-11-04T07:58:56;13.50;1.00
19805;DHT22;10062;51.052;13.756;2022-11-04T08:01:28;13.40;1.00
19805;DHT22;10062;51.052;13.756;2022-11-04T08:04:00;13.40;1.00
19805;DHT22;10062;51.052;13.756;2022-11-04T08:06:31;13.50;1.00
19805;DHT22;10062;51.052;13.756;2022-11-04T08:09:03;13.20;1.00
19805;DHT22;10062;51.052;13.756;2022-11-04T08:11:36;13.10;1.00
19805;DHT22;10062;51.052;13.756;2022-11-04T08:14:09;13.10;1.00
19805;DHT22;10062;51.052;13.756;2022-11-04T08:16:41;13.00;1.00
19805;DHT22;10062;51.052;13.756;2022-11-04T08:19:13;13.10;1.00
19805;DHT22;10062;51.052;13.756;2022-11-04T08:21:44;13.10;1.00
19805;DHT22;10062;51.052;13.756;2022-11-04T08:24:16;13.10;1.00
19805;DHT22;10062;51.052;13.756;2022-11-04T08:26:49;13.00;1.00
19805;DHT22;10062;51.052;13.756;2022-11-04T08:29:21;12.80;12.10
19805;DHT22;10062;51.052;13.756;2022-11-04T08:31:53;12.70;2.90
19805;DHT22;10062;51.052;13.756;2022-11-04T08:34:25;12.70;1.00
19805;DHT22;10062;51.052;13.756;2022-11-04T08:36:56;12.70;17.80
19805;DHT22;10062;51.052;13.756;2022-11-04T08:39:29;12.70;32.60
19805;DHT22;10062;51.052;13.756;2022-11-04T08:42:03;12.70;18.30
19805;DHT22;10062;51.052;13.756;2022-11-04T08:44:35;12.80;7.10
19805;DHT22;10062;51.052;13.756;2022-11-04T08:47:09;12.80;1.00
19805;DHT22;10062;51.052;13.756;2022-11-04T08:49:41;12.90;1.00
19805;DHT22;10062;51.052;13.756;2022-11-04T08:52:12;13.00;1.00
19805;DHT22;10062;51.052;13.756;2022-11-04T08:54:44;13.00;1.00
19805;DHT22;10062;51.052;13.756;2022-11-04T08:57:17;13.10;1.00
19805;DHT22;10062;51.052;13.756;2022-11-04T08:59:49;13.00;1.00
19805;DHT22;10062;51.052;13.756;2022-11-04T09:02:21;13.00;1.00
19805;DHT22;10062;51.052;13.756;2022-11-04T09:04:53;12.90;1.00
19805;DHT22;10062;51.052;13.756;2022-11-04T09:07:24;12.80;1.00
19805;DHT22;10062;51.052;13.756;2022-11-04T09:09:56;12.90;1.00
19805;DHT22;10062;51.052;13.756;2022-11-04T09:12:29;12.80;1.00
19805;DHT22;10062;51.052;13.756;2022-11-04T09:15:01;12.80;1.00
19805;DHT22;10062;51.052;13.756;2022-11-04T09:17:34;12.80;1.00
19805;DHT22;10062;51.052;13.756;2022-11-04T09:20:07;12.80;1.00
19805;DHT22;10062;51.052;13.756;2022-11-04T09:22:39;12.80;1.00
19805;DHT22;10062;51.052;13.756;2022-11-04T09:25:11;12.80;1.00
19805;DHT22;10062;51.052;13.756;2022-11-04T09:27:44;12.80;1.00
19805;DHT22;10062;51.052;13.756;2022-11-04T09:30:16;12.80;1.00
19805;DHT22;10062;51.052;13.756;2022-11-04T09:32:48;12.70;1.00
19805;DHT22;10062;51.052;13.756;2022-11-04T09:35:20;12.90;1.00
19805;DHT22;10062;51.052;13.756;2022-11-04T09:37:52;12.80;1.00
19805;DHT22;10062;51.052;13.756;2022-11-04T09:40:24;12.80;1.00
19805;DHT22;10062;51.052;13.756;2022-11-04T09:43:08;12.70;24.70
19805;DHT22;10062;51.052;13.756;2022-11-04T09:45:44;12.70;32.70
19805;DHT22;10062;51.052;13.756;2022-11-04T09:48:22;12.60;39.90
19805;DHT22;10062;51.052;13.756;2022-11-04T09:50:58;12.60;44.50
19805;DHT22;10062;51.052;13.756;2022-11-04T09:53:37;12.60;53.10
19805;DHT22;10062;51.052;13.756;2022-11-04T09:56:15;12.50;58.90
19805;DHT22;10062;51.052;13.756;2022-11-04T09:58:50;12.60;57.50
19805;DHT22;10062;51.052;13.756;2022-11-04T10:01:27;12.50;48.50
19805;DHT22;10062;51.052;13.756;2022-11-04T10:04:11;12.50;61.00
19805;DHT22;10062;51.052;13.756;2022-11-04T10:06:59;12.40;88.80
19805;DHT22;10062;51.052;13.756;2022-11-04T10:09:44;12.40;97.50
19805;DHT22;10062;51.052;13.756;2022-11-04T10:12:26;12.30;99.90
19805;DHT22;10062;51.052;13.756;2022-11-04T10:15:19;12.30;99.90
19805;DHT22;10062;51.052;13.756;2022-11-04T10:18:05;12.30;99.90
19805;DHT22;10062;51.052;13.756;2022-11-04T10:20:48;12.10;99.90
19805;DHT22;10062;51.052;13.756;2022-11-04T10:23:29;12.10;99.90
19805;DHT22;10062;51.052;13.756;2022-11-04T10:26:11;12.10;99.90
19805;DHT22;10062;51.052;13.756;2022-11-04T10:28:48;12.10;99.90
19805;DHT22;10062;51.052;13.756;2022-11-04T10:31:24;12.10;99.90
19805;DHT22;10062;51.052;13.756;2022-11-04T10:34:02;12.20;99.90
19805;DHT22;10062;51.052;13.756;2022-11-04T10:36:35;12.00;99.90
19805;DHT22;10062;51.052;13.756;2022-11-04T10:39:14;12.00;99.90
19805;DHT22;10062;51.052;13.756;2022-11-04T10:41:48;12.10;99.90
19805;DHT22;10062;51.052;13.756;2022-11-04T10:44:21;12.00;99.90
19805;DHT22;10062;51.052;13.756;2022-11-04T10:47:03;12.00;99.90
19805;DHT22;10062;51.052;13.756;2022-11-04T10:49:49;11.80;99.90
19805;DHT22;10062;51.052;13.756;2022-11-04T10:52:24;11.80;99.90
19805;DHT22;10062;51.052;13.756;2022-11-04T10:54:55;11.70;99.90
19805;DHT22;10062;51.052;13.756;2022-11-04T10:57:27;11.70;99.90
19805;DHT22;10062;51.052;13.756;2022-11-04T11:00:02;11.70;99.90
19805;DHT22;10062;51.052;13.756;2022-11-04T11:02:46;11.70;99.90
19805;DHT22;10062;51.052;13.756;2022-11-04T11:05:23;11.70;99.90
19805;DHT22;10062;51.052;13.756;2022-11-04T11:07:56;11.80;99.90
19805;DHT22;10062;51.052;13.756;2022-11-04T11:10:29;11.70;99.90
19805;DHT22;10062;51.052;13.756;2022-11-04T11:13:03;11.60;99.90
19805;DHT22;10062;51.052;13.756;2022-11-04T11:15:38;11.60;99.90
19805;DHT22;10062;51.052;13.756;2022-11-04T11:18:15;11.60;99.90
19805;DHT22;10062;51.052;13.756;2022-11-04T11:20:49;11.70;99.90
19805;DHT22;10062;51.052;13.756;2022-11-04T11:23:34;11.70;99.90
19805;DHT22;10062;51.052;13.756;2022-11-04T11:26:07;11.70;99.90
19805;DHT22;10062;51.052;13.756;2022-11-04T11:28:39;11.70;99.90
19805;DHT22;10062;51.052;13.756;2022-11-04T11:31:13;11.70;99.90
19805;DHT22;10062;51.052;13.756;2022-11-04T11:33:56;11.60;99.90
19805;DHT22;10062;51.052;13.756;2022-11-04T11:36:30;11.60;99.90
19805;DHT22;10062;51.052;13.756;2022-11-04T11:39:04;11.60;99.90
19805;DHT22;10062;51.052;13.756;2022-11-04T11:41:50;11.70;99.90
19805;DHT22;10062;51.052;13.756;2022-11-04T11:44:25;11.80;99.90
19805;DHT22;10062;51.052;13.756;2022-11-04T11:47:00;11.90;99.90
19805;DHT22;10062;51.052;13.756;2022-11-04T11:49:35;11.80;99.90
19805;DHT22;10062;51.052;13.756;2022-11-04T11:52:30;11.80;99.90
19805;DHT22;10062;51.052;13.756;2022-11-04T11:55:05;11.90;99.90
19805;DHT22;10062;51.052;13.756;2022-11-04T11:57:44;11.80;99.90
19805;DHT22;10062;51.052;13.756;2022-11-04T12:00:19;11.80;99.90
19805;DHT22;10062;51.052;13.756;2022-11-04T12:03:01;11.70;99.90
19805;DHT22;10062;51.052;13.756;2022-11-04T12:05:43;11.70;99.90
19805;DHT22;10062;51.052;13.756;2022-11-04T12:08:36;11.60;99.90
19805;DHT22;10062;51.052;13.756;2022-11-04T12:11:14;11.50;99.90
19805;DHT22;10062;51.052;13.756;2022-11-04T12:13:50;11.50;99.90
19805;DHT22;10062;51.052;13.756;2022-11-04T12:16:32;11.60;99.90
19805;DHT22;10062;51.052;13.756;2022-11-04T12:19:24;11.50;99.90
19805;DHT22;10062;51.052;13.756;2022-11-04T12:22:02;11.50;99.90
19805;DHT22;10062;51.052;13.756;2022-11-04T12:24:45;11.50;99.90
19805;DHT22;10062;51.052;13.756;2022-11-04T12:27:30;11.40;99.90
19805;DHT22;10062;51.052;13.756;2022-11-04T12:30:06;11.20;99.90
19805;DHT22;10062;51.052;13.756;2022-11-04T12:32:49;11.20;99.90
19805;DHT22;10062;51.052;13.756;2022-11-04T12:35:48;11.20;99.90
19805;DHT22;10062;51.052;13.756;2022-11-04T12:38:41;11.20;99.90
19805;DHT22;10062;51.052;13.756;2022-11-04T12:41:23;11.10;99.90
19805;DHT22;10062;51.052;13.756;2022-11-04T12:44:04;13.00;99.90
19805;DHT22;10062;51.052;13.756;2022-11-04T12:46:44;11.10;99.90
19805;DHT22;10062;51.052;13.756;2022-11-04T12:49:42;11.10;99.90
19805;DHT22;10062;51.052;13.756;2022-11-04T12:52:31;11.10;99.90
19805;DHT22;10062;51.052;13.756;2022-11-04T12:55:20;11.20;99.90
19805;DHT22;10062;51.052;13.756;2022-11-04T12:58:01;11.10;99.90
19805;DHT22;10062;51.052;13.756;2022-11-04T13:00:37;11.10;99.90
19805;DHT22;10062;51.052;13.756;2022-11-04T13:03:15;11.00;99.90
19805;DHT22;10062;51.052;13.756;2022-11-04T13:05:52;11.00;99.90
19805;DHT22;10062;51.052;13.756;2022-11-04T13:08:28;11.00;99.90
19805;DHT22;10062;51.052;13.756;2022-11-04T13:11:08;10.90;99.90
19805;DHT22;10062;51.052;13.756;2022-11-04T13:14:01;10.90;99.90
19805;DHT22;10062;51.052;13.756;2022-11-04T13:16:37;10.90;99.90
19805;DHT22;10062;51.052;13.756;2022-11-04T13:19:21;10.80;99.90
19805;DHT22;10062;51.052;13.756;2022-11-04T13:21:55;10.80;99.90
19805;DHT22;10062;51.052;13.756;2022-11-04T13:24:29;10.90;99.90
19805;DHT22;10062;51.052;13.756;2022-11-04T13:27:05;11.00;99.90
19805;DHT22;10062;51.052;13.756;2022-11-04T13:29:44;10.90;99.90
19805;DHT22;10062;51.052;13.756;2022-11-04T13:32:21;10.90;99.90
19805;DHT22;10062;51.052;13.756;2022-11-04T13:35:00;10.90;99.90
19805;DHT22;10062;51.052;13.756;2022-11-04T13:37:38;10.80;99.90
19805;DHT22;10062;51.052;13.756;2022-11-04T13:40:15;10.90;99.90
19805;DHT22;10062;51.052;13.756;2022-11-04T13:46:24;10.90;99.90
19805;DHT22;10062;51.052;13.756;2022-11-04T13:49:04;10.90;99.90
19805;DHT22;10062;51.052;13.756;2022-11-04T13:51:41;11.00;99.90
19805;DHT22;10062;51.052;13.756;2022-11-04T13:54:26;11.10;99.90
19805;DHT22;10062;51.052;13.756;2022-11-04T13:57:06;11.00;99.90
19805;DHT22;10062;51.052;13.756;2022-11-04T13:59:41;10.90;99.90
19805;DHT22;10062;51.052;13.756;2022-11-04T14:02:31;10.90;99.90
19805;DHT22;10062;51.052;13.756;2022-11-04T14:08:19;10.90;99.90
19805;DHT22;10062;51.052;13.756;2022-11-04T14:11:03;10.90;99.90
19805;DHT22;10062;51.052;13.756;2022-11-04T14:16:45;10.80;99.90
19805;DHT22;10062;51.052;13.756;2022-11-04T14:22:34;10.80;99.90
19805;DHT22;10062;51.052;13.756;2022-11-04T14:25:25;10.80;99.90
19805;DHT22;10062;51.052;13.756;2022-11-04T14:27:59;10.80;99.90
19805;DHT22;10062;51.052;13.756;2022-11-04T14:30:44;10.80;99.90
19805;DHT22;10062;51.052;13.756;2022-11-04T14:33:31;10.70;99.90
19805;DHT22;10062;51.052;13.756;2022-11-04T14:36:20;10.80;99.90
19805;DHT22;10062;51.052;13.756;2022-11-04T14:38:56;10.80;99.90
19805;DHT22;10062;51.052;13.756;2022-11-04T14:44:27;10.80;99.90
19805;DHT22;10062;51.052;13.756;2022-11-04T14:47:06;10.80;99.90
19805;DHT22;10062;51.052;13.756;2022-11-04T14:49:47;10.70;99.90
19805;DHT22;10062;51.052;13.756;2022-11-04T14:52:23;10.70;99.90
19805;DHT22;10062;51.052;13.756;2022-11-04T14:55:02;10.70;99.90
19805;DHT22;10062;51.052;13.756;2022-11-04T14:57:36;10.80;99.90
19805;DHT22;10062;51.052;13.756;2022-11-04T15:00:24;10.70;99.90
19805;DHT22;10062;51.052;13.756;2022-11-04T15:05:57;10.70;99.90
19805;DHT22;10062;51.052;13.756;2022-11-04T15:08:32;9.60;99.90
19805;DHT22;10062;51.052;13.756;2022-11-04T15:11:09;10.60;99.90
19805;DHT22;10062;51.052;13.756;2022-11-04T15:13:44;10.60;99.90
19805;DHT22;10062;51.052;13.756;2022-11-04T15:16:18;10.60;99.90
19805;DHT22;10062;51.052;13.756;2022-11-04T15:18:52;10.50;99.90
19805;DHT22;10062;51.052;13.756;2022-11-04T15:21:26;10.40;99.90
19805;DHT22;10062;51.052;13.756;2022-11-04T15:23:58;10.40;99.90
19805;DHT22;10062;51.052;13.756;2022-11-04T15:26:32;10.40;99.90
19805;DHT22;10062;51.052;13.756;2022-11-04T15:29:08;10.20;99.90
19805;DHT22;10062;51.052;13.756;2022-11-04T15:31:51;10.20;99.90
19805;DHT22;10062;51.052;13.756;2022-11-04T15:34:24;10.20;99.90
19805;DHT22;10062;51.052;13.756;2022-11-04T15:37:00;10.20;99.90
19805;DHT22;10062;51.052;13.756;2022-11-04T15:39:38;10.20;99.90
19805;DHT22;10062;51.052;13.756;2022-11-04T15:42:15;10.20;99.90
19805;DHT22;10062;51.052;13.756;2022-11-04T15:45:27;10.30;99.90
19805;DHT22;10062;51.052;13.756;2022-11-04T15:48:22;10.30;99.90
19805;DHT22;10062;51.052;13.756;2022-11-04T15:51:03;10.30;99.90
19805;DHT22;10062;51.052;13.756;2022-11-04T15:53:49;10.30;99.90
19805;DHT22;10062;51.052;13.756;2022-11-04T15:56:23;10.30;99.90
19805;DHT22;10062;51.052;13.756;2022-11-04T15:58:57;10.30;99.90
19805;DHT22;10062;51.052;13.756;2022-11-04T16:01:30;10.40;99.90
19805;DHT22;10062;51.052;13.756;2022-11-04T16:04:05;10.40;99.90
19805;DHT22;10062;51.052;13.756;2022-11-04T16:06:39;10.40;99.90
19805;DHT22;10062;51.052;13.756;2022-11-04T16:09:21;10.20;99.90
19805;DHT22;10062;51.052;13.756;2022-11-04T16:12:04;10.20;99.90
19805;DHT22;10062;51.052;13.756;2022-11-04T16:14:36;10.30;99.90
19805;DHT22;10062;51.052;13.756;2022-11-04T16:17:09;10.30;99.90
19805;DHT22;10062;51.052;13.756;2022-11-04T16:19:48;10.30;99.90
19805;DHT22;10062;51.052;13.756;2022-11-04T16:22:25;10.20;99.90
19805;DHT22;10062;51.052;13.756;2022-11-04T16:25:01;10.20;99.90
19805;DHT22;10062;51.052;13.756;2022-11-04T16:27:34;10.20;99.90
19805;DHT22;10062;51.052;13.756;2022-11-04T16:30:08;10.20;99.90
19805;DHT22;10062;51.052;13.756;2022-11-04T16:32:45;10.20;99.90
19805;DHT22;10062;51.052;13.756;2022-11-04T16:35:19;10.20;99.90
19805;DHT22;10062;51.052;13.756;2022-11-04T16:37:52;10.20;99.90
19805;DHT22;10062;51.052;13.756;2022-11-04T16:40:26;10.20;99.90
19805;DHT22;10062;51.052;13.756;2022-11-04T16:42:58;10.20;99.90
19805;DHT22;10062;51.052;13.756;2022-11-04T16:45:32;10.10;99.90